sensor_id;sensor_type;location;lat;lon;timestamp;P1;durP1;ratioP1;P2;durP2;ratioP2
11228;SDS011;5671;47.936;8.716;2023-11-18T00:00:46;11.70;;;3.40;;
11228;SDS011;5671;47.936;8.716;2023-11-18T00:03:15;27.13;;;4.10;;
11228;SDS011;5671;47.936;8.716;2023-11-18T00:05:44;14.50;;;3.70;;
11228;SDS011;5671;47.936;8.716;2023-11-18T00:08:11;9.87;;;3.00;;
11228;SDS011;5671;47.936;8.716;2023-11-18T00:10:38;125.60;;;5.40;;
11228;SDS011;5671;47.936;8.716;2023-11-18T00:13:04;186.93;;;8.10;;
11228;SDS011;5671;47.936;8.716;2023-11-18T00:15:31;94.07;;;5.03;;
11228;SDS011;5671;47.936;8.716;2023-11-18T00:17:59;23.30;;;3.80;;
11228;SDS011;5671;47.936;8.716;2023-11-18T00:20:28;16.60;;;2.97;;
11228;SDS011;5671;47.936;8.716;2023-11-18T00:22:56;19.47;;;3.10;;
11228;SDS011;5671;47.936;8.716;2023-11-18T00:25:22;98.27;;;5.40;;
11228;SDS011;5671;47.936;8.716;2023-11-18T00:27:49;7.00;;;3.00;;
11228;SDS011;5671;47.936;8.716;2023-11-18T00:30:16;21.77;;;3.27;;
11228;SDS011;5671;47.936;8.716;2023-11-18T00:32:43;14.50;;;3.63;;
11228;SDS011;5671;47.936;8.716;2023-11-18T00:35:10;24.77;;;3.73;;
11228;SDS011;5671;47.936;8.716;2023-11-18T00:37:39;4.63;;;2.63;;
11228;SDS011;5671;47.936;8.716;2023-11-18T00:40:06;39.47;;;3.60;;
11228;SDS011;5671;47.936;8.716;2023-11-18T00:42:34;46.73;;;4.47;;
11228;SDS011;5671;47.936;8.716;2023-11-18T00:45:01;76.17;;;4.53;;
11228;SDS011;5671;47.936;8.716;2023-11-18T00:47:29;29.70;;;2.77;;
11228;SDS011;5671;47.936;8.716;2023-11-18T00:49:56;15.27;;;2.80;;
11228;SDS011;5671;47.936;8.716;2023-11-18T00:52:26;14.83;;;2.87;;
11228;SDS011;5671;47.936;8.716;2023-11-18T00:54:55;29.07;;;3.20;;
11228;SDS011;5671;47.936;8.716;2023-11-18T00:57:22;33.43;;;3.20;;
11228;SDS011;5671;47.936;8.716;2023-11-18T00:59:49;32.73;;;3.10;;
11228;SDS011;5671;47.936;8.716;2023-11-18T01:02:15;26.07;;;2.90;;
11228;SDS011;5671;47.936;8.716;2023-11-18T01:04:43;35.10;;;2.80;;
11228;SDS011;5671;47.936;8.716;2023-11-18T01:07:10;31.90;;;2.80;;
11228;SDS011;5671;47.936;8.716;2023-11-18T01:09:37;64.80;;;4.00;;
11228;SDS011;5671;47.936;8.716;2023-11-18T01:12:08;33.13;;;3.33;;
11228;SDS011;5671;47.936;8.716;2023-11-18T01:14:36;77.83;;;4.33;;
11228;SDS011;5671;47.936;8.716;2023-11-18T01:17:03;12.03;;;2.57;;
11228;SDS011;5671;47.936;8.716;2023-11-18T01:19:31;28.77;;;2.80;;
11228;SDS011;5671;47.936;8.716;2023-11-18T01:21:58;31.30;;;2.73;;
11228;SDS011;5671;47.936;8.716;2023-11-18T01:24:25;44.97;;;2.53;;
11228;SDS011;5671;47.936;8.716;2023-11-18T01:26:53;32.57;;;2.33;;
11228;SDS011;5671;47.936;8.716;2023-11-18T01:29:21;11.47;;;1.50;;
11228;SDS011;5671;47.936;8.716;2023-11-18T01:31:49;1.10;;;1.10;;
11228;SDS011;5671;47.936;8.716;2023-11-18T01:34:16;1.17;;;1.17;;
11228;SDS011;5671;47.936;8.716;2023-11-18T01:36:46;1.10;;;1.00;;
11228;SDS011;5671;47.936;8.716;2023-11-18T01:39:14;1.00;;;1.00;;
11228;SDS011;5671;47.936;8.716;2023-11-18T01:41:42;1.27;;;1.07;;
11228;SDS011;5671;47.936;8.716;2023-11-18T01:44:09;1.60;;;1.50;;
11228;SDS011;5671;47.936;8.716;2023-11-18T01:46:40;4.63;;;1.70;;
11228;SDS011;5671;47.936;8.716;2023-11-18T01:49:10;7.83;;;2.23;;
11228;SDS011;5671;47.936;8.716;2023-11-18T01:51:38;21.93;;;2.60;;
11228;SDS011;5671;47.936;8.716;2023-11-18T01:54:06;34.17;;;3.00;;
11228;SDS011;5671;47.936;8.716;2023-11-18T01:56:40;17.47;;;2.50;;
11228;SDS011;5671;47.936;8.716;2023-11-18T01:59:08;10.37;;;2.23;;
11228;SDS011;5671;47.936;8.716;2023-11-18T02:01:35;7.30;;;2.20;;
11228;SDS011;5671;47.936;8.716;2023-11-18T02:04:06;10.83;;;2.30;;
11228;SDS011;5671;47.936;8.716;2023-11-18T02:06:32;22.87;;;2.17;;
11228;SDS011;5671;47.936;8.716;2023-11-18T02:09:01;15.87;;;2.10;;
11228;SDS011;5671;47.936;8.716;2023-11-18T02:11:30;23.47;;;2.57;;
11228;SDS011;5671;47.936;8.716;2023-11-18T02:14:06;22.67;;;2.93;;
11228;SDS011;5671;47.936;8.716;2023-11-18T02:16:36;2.10;;;2.00;;
11228;SDS011;5671;47.936;8.716;2023-11-18T02:19:06;3.33;;;2.23;;
11228;SDS011;5671;47.936;8.716;2023-11-18T02:21:43;9.53;;;1.90;;
11228;SDS011;5671;47.936;8.716;2023-11-18T02:24:10;4.73;;;2.30;;
11228;SDS011;5671;47.936;8.716;2023-11-18T02:26:51;13.37;;;2.60;;
11228;SDS011;5671;47.936;8.716;2023-11-18T02:29:18;19.13;;;2.57;;
11228;SDS011;5671;47.936;8.716;2023-11-18T02:31:45;10.30;;;2.50;;
11228;SDS011;5671;47.936;8.716;2023-11-18T02:34:14;1.87;;;1.77;;
11228;SDS011;5671;47.936;8.716;2023-11-18T02:36:46;2.97;;;1.83;;
11228;SDS011;5671;47.936;8.716;2023-11-18T02:39:16;9.57;;;2.10;;
11228;SDS011;5671;47.936;8.716;2023-11-18T02:41:48;37.90;;;3.23;;
11228;SDS011;5671;47.936;8.716;2023-11-18T02:44:21;5.23;;;2.03;;
11228;SDS011;5671;47.936;8.716;2023-11-18T02:46:50;25.27;;;2.30;;
11228;SDS011;5671;47.936;8.716;2023-11-18T02:49:17;8.90;;;1.80;;
11228;SDS011;5671;47.936;8.716;2023-11-18T02:51:44;7.50;;;1.90;;
11228;SDS011;5671;47.936;8.716;2023-11-18T02:54:12;4.80;;;1.57;;
11228;SDS011;5671;47.936;8.716;2023-11-18T02:56:41;3.83;;;1.40;;
11228;SDS011;5671;47.936;8.716;2023-11-18T02:59:09;4.47;;;1.13;;
11228;SDS011;5671;47.936;8.716;2023-11-18T03:01:37;0.93;;;0.93;;
11228;SDS011;5671;47.936;8.716;2023-11-18T03:04:05;1.23;;;1.20;;
11228;SDS011;5671;47.936;8.716;2023-11-18T03:06:32;18.03;;;1.50;;
11228;SDS011;5671;47.936;8.716;2023-11-18T03:08:59;2.07;;;1.10;;
11228;SDS011;5671;47.936;8.716;2023-11-18T03:11:26;52.93;;;2.80;;
11228;SDS011;5671;47.936;8.716;2023-11-18T03:13:55;1.40;;;1.30;;
11228;SDS011;5671;47.936;8.716;2023-11-18T03:16:23;8.10;;;1.60;;
11228;SDS011;5671;47.936;8.716;2023-11-18T03:18:50;19.20;;;1.60;;
11228;SDS011;5671;47.936;8.716;2023-11-18T03:21:17;13.23;;;2.43;;
11228;SDS011;5671;47.936;8.716;2023-11-18T03:23:45;27.13;;;2.00;;
11228;SDS011;5671;47.936;8.716;2023-11-18T03:26:12;6.03;;;1.50;;
11228;SDS011;5671;47.936;8.716;2023-11-18T03:28:39;9.13;;;1.83;;
11228;SDS011;5671;47.936;8.716;2023-11-18T03:31:07;7.97;;;1.63;;
11228;SDS011;5671;47.936;8.716;2023-11-18T03:33:46;6.40;;;1.30;;
11228;SDS011;5671;47.936;8.716;2023-11-18T03:36:14;1.43;;;1.30;;
11228;SDS011;5671;47.936;8.716;2023-11-18T03:38:43;5.03;;;1.30;;
11228;SDS011;5671;47.936;8.716;2023-11-18T03:41:10;4.73;;;1.50;;
11228;SDS011;5671;47.936;8.716;2023-11-18T03:43:38;14.73;;;1.70;;
11228;SDS011;5671;47.936;8.716;2023-11-18T03:46:04;4.23;;;1.43;;
11228;SDS011;5671;47.936;8.716;2023-11-18T03:48:32;1.17;;;1.17;;
11228;SDS011;5671;47.936;8.716;2023-11-18T03:51:01;5.03;;;1.23;;
11228;SDS011;5671;47.936;8.716;2023-11-18T03:53:28;2.23;;;1.27;;
11228;SDS011;5671;47.936;8.716;2023-11-18T03:55:55;13.90;;;1.77;;
11228;SDS011;5671;47.936;8.716;2023-11-18T03:58:22;4.20;;;1.30;;
11228;SDS011;5671;47.936;8.716;2023-11-18T04:00:49;19.43;;;2.13;;
11228;SDS011;5671;47.936;8.716;2023-11-18T04:03:16;29.23;;;1.97;;
11228;SDS011;5671;47.936;8.716;2023-11-18T04:05:43;36.40;;;2.67;;
11228;SDS011;5671;47.936;8.716;2023-11-18T04:08:12;80.67;;;3.07;;
11228;SDS011;5671;47.936;8.716;2023-11-18T04:10:39;1.47;;;1.30;;
11228;SDS011;5671;47.936;8.716;2023-11-18T04:13:05;14.33;;;1.87;;
11228;SDS011;5671;47.936;8.716;2023-11-18T04:15:32;2.67;;;1.40;;
11228;SDS011;5671;47.936;8.716;2023-11-18T04:18:00;31.77;;;2.53;;
11228;SDS011;5671;47.936;8.716;2023-11-18T04:20:27;1.30;;;1.30;;
11228;SDS011;5671;47.936;8.716;2023-11-18T04:22:54;56.87;;;3.23;;
11228;SDS011;5671;47.936;8.716;2023-11-18T04:25:23;44.53;;;2.57;;
11228;SDS011;5671;47.936;8.716;2023-11-18T04:27:50;26.75;;;2.05;;
11228;SDS011;5671;47.936;8.716;2023-11-18T04:30:17;58.77;;;3.50;;
11228;SDS011;5671;47.936;8.716;2023-11-18T04:32:44;35.47;;;2.30;;
11228;SDS011;5671;47.936;8.716;2023-11-18T04:35:11;6.60;;;1.40;;
11228;SDS011;5671;47.936;8.716;2023-11-18T04:37:38;1.40;;;1.30;;
11228;SDS011;5671;47.936;8.716;2023-11-18T04:40:08;14.63;;;1.50;;
11228;SDS011;5671;47.936;8.716;2023-11-18T04:42:38;1.50;;;1.40;;
11228;SDS011;5671;47.936;8.716;2023-11-18T04:45:05;46.43;;;2.70;;
11228;SDS011;5671;47.936;8.716;2023-11-18T04:47:34;11.93;;;1.60;;
11228;SDS011;5671;47.936;8.716;2023-11-18T04:50:02;10.97;;;1.40;;
11228;SDS011;5671;47.936;8.716;2023-11-18T04:52:30;34.30;;;2.50;;
11228;SDS011;5671;47.936;8.716;2023-11-18T04:55:00;6.77;;;1.50;;
11228;SDS011;5671;47.936;8.716;2023-11-18T04:57:27;25.33;;;1.97;;
11228;SDS011;5671;47.936;8.716;2023-11-18T04:59:55;9.23;;;1.50;;
11228;SDS011;5671;47.936;8.716;2023-11-18T05:02:22;5.37;;;1.00;;
11228;SDS011;5671;47.936;8.716;2023-11-18T05:04:49;9.10;;;1.60;;
11228;SDS011;5671;47.936;8.716;2023-11-18T05:07:16;16.33;;;1.40;;
11228;SDS011;5671;47.936;8.716;2023-11-18T05:09:43;1.70;;;1.60;;
11228;SDS011;5671;47.936;8.716;2023-11-18T05:12:12;1.30;;;1.30;;
11228;SDS011;5671;47.936;8.716;2023-11-18T05:14:39;1.50;;;1.40;;
11228;SDS011;5671;47.936;8.716;2023-11-18T05:17:10;1.60;;;1.50;;
11228;SDS011;5671;47.936;8.716;2023-11-18T05:19:38;1.47;;;1.37;;
11228;SDS011;5671;47.936;8.716;2023-11-18T05:22:07;1.50;;;1.40;;
11228;SDS011;5671;47.936;8.716;2023-11-18T05:24:36;1.00;;;1.00;;
11228;SDS011;5671;47.936;8.716;2023-11-18T05:27:02;1.03;;;1.03;;
11228;SDS011;5671;47.936;8.716;2023-11-18T05:29:29;0.90;;;0.90;;
11228;SDS011;5671;47.936;8.716;2023-11-18T05:31:55;0.77;;;0.77;;
11228;SDS011;5671;47.936;8.716;2023-11-18T05:34:24;0.90;;;0.90;;
11228;SDS011;5671;47.936;8.716;2023-11-18T05:36:51;1.97;;;1.33;;
11228;SDS011;5671;47.936;8.716;2023-11-18T05:39:19;2.80;;;1.37;;
11228;SDS011;5671;47.936;8.716;2023-11-18T05:41:46;3.00;;;1.40;;
11228;SDS011;5671;47.936;8.716;2023-11-18T05:44:18;9.13;;;1.37;;
11228;SDS011;5671;47.936;8.716;2023-11-18T05:46:46;9.90;;;2.90;;
11228;SDS011;5671;47.936;8.716;2023-11-18T05:49:16;34.00;;;6.90;;
11228;SDS011;5671;47.936;8.716;2023-11-18T05:51:49;99.60;;;5.37;;
11228;SDS011;5671;47.936;8.716;2023-11-18T05:54:16;2.07;;;1.60;;
11228;SDS011;5671;47.936;8.716;2023-11-18T05:56:45;35.40;;;3.33;;
11228;SDS011;5671;47.936;8.716;2023-11-18T05:59:12;34.43;;;2.33;;
11228;SDS011;5671;47.936;8.716;2023-11-18T06:01:42;51.37;;;3.23;;
11228;SDS011;5671;47.936;8.716;2023-11-18T06:04:09;41.03;;;2.80;;
11228;SDS011;5671;47.936;8.716;2023-11-18T06:06:36;56.03;;;3.30;;
11228;SDS011;5671;47.936;8.716;2023-11-18T06:09:05;3.63;;;1.70;;
11228;SDS011;5671;47.936;8.716;2023-11-18T06:11:43;9.67;;;2.20;;
11228;SDS011;5671;47.936;8.716;2023-11-18T06:14:10;41.23;;;2.83;;
11228;SDS011;5671;47.936;8.716;2023-11-18T06:16:38;14.13;;;2.37;;
11228;SDS011;5671;47.936;8.716;2023-11-18T06:19:06;23.63;;;2.33;;
11228;SDS011;5671;47.936;8.716;2023-11-18T06:21:33;13.43;;;2.10;;
11228;SDS011;5671;47.936;8.716;2023-11-18T06:24:00;8.43;;;1.60;;
11228;SDS011;5671;47.936;8.716;2023-11-18T06:26:30;3.00;;;1.67;;
11228;SDS011;5671;47.936;8.716;2023-11-18T06:29:00;10.20;;;2.00;;
11228;SDS011;5671;47.936;8.716;2023-11-18T06:31:26;58.73;;;3.73;;
11228;SDS011;5671;47.936;8.716;2023-11-18T06:33:54;38.03;;;2.43;;
11228;SDS011;5671;47.936;8.716;2023-11-18T06:36:21;22.93;;;2.20;;
11228;SDS011;5671;47.936;8.716;2023-11-18T06:38:51;16.47;;;2.00;;
11228;SDS011;5671;47.936;8.716;2023-11-18T06:41:19;146.93;;;6.73;;
11228;SDS011;5671;47.936;8.716;2023-11-18T06:43:49;21.93;;;2.60;;
11228;SDS011;5671;47.936;8.716;2023-11-18T06:46:26;26.80;;;2.70;;
11228;SDS011;5671;47.936;8.716;2023-11-18T06:48:57;88.10;;;4.30;;
11228;SDS011;5671;47.936;8.716;2023-11-18T06:51:25;10.90;;;2.20;;
11228;SDS011;5671;47.936;8.716;2023-11-18T06:53:53;32.80;;;2.63;;
11228;SDS011;5671;47.936;8.716;2023-11-18T06:56:21;22.30;;;2.43;;
11228;SDS011;5671;47.936;8.716;2023-11-18T06:58:49;20.53;;;2.40;;
11228;SDS011;5671;47.936;8.716;2023-11-18T07:01:17;12.40;;;2.70;;
11228;SDS011;5671;47.936;8.716;2023-11-18T07:03:44;12.77;;;2.30;;
11228;SDS011;5671;47.936;8.716;2023-11-18T07:06:16;3.73;;;2.17;;
11228;SDS011;5671;47.936;8.716;2023-11-18T07:08:47;2.33;;;2.13;;
11228;SDS011;5671;47.936;8.716;2023-11-18T07:11:14;5.40;;;2.27;;
11228;SDS011;5671;47.936;8.716;2023-11-18T07:13:46;7.60;;;2.97;;
11228;SDS011;5671;47.936;8.716;2023-11-18T07:16:18;14.73;;;2.60;;
11228;SDS011;5671;47.936;8.716;2023-11-18T07:18:44;123.90;;;6.63;;
11228;SDS011;5671;47.936;8.716;2023-11-18T07:21:12;85.97;;;4.10;;
11228;SDS011;5671;47.936;8.716;2023-11-18T07:23:39;120.10;;;5.27;;
11228;SDS011;5671;47.936;8.716;2023-11-18T07:26:07;77.10;;;4.57;;
11228;SDS011;5671;47.936;8.716;2023-11-18T07:28:38;52.87;;;2.80;;
11228;SDS011;5671;47.936;8.716;2023-11-18T07:31:05;55.20;;;3.37;;
11228;SDS011;5671;47.936;8.716;2023-11-18T07:33:38;132.80;;;6.33;;
11228;SDS011;5671;47.936;8.716;2023-11-18T07:36:09;144.50;;;6.10;;
11228;SDS011;5671;47.936;8.716;2023-11-18T07:38:40;84.50;;;5.10;;
11228;SDS011;5671;47.936;8.716;2023-11-18T07:41:10;9.83;;;2.70;;
11228;SDS011;5671;47.936;8.716;2023-11-18T07:43:48;15.27;;;2.53;;
11228;SDS011;5671;47.936;8.716;2023-11-18T07:46:20;3.33;;;1.97;;
11228;SDS011;5671;47.936;8.716;2023-11-18T07:48:49;10.10;;;2.00;;
11228;SDS011;5671;47.936;8.716;2023-11-18T07:51:17;1.90;;;1.80;;
11228;SDS011;5671;47.936;8.716;2023-11-18T07:53:43;3.33;;;2.27;;
11228;SDS011;5671;47.936;8.716;2023-11-18T07:56:10;31.83;;;7.63;;
11228;SDS011;5671;47.936;8.716;2023-11-18T07:58:38;123.90;;;6.40;;
11228;SDS011;5671;47.936;8.716;2023-11-18T08:01:06;5.83;;;3.20;;
11228;SDS011;5671;47.936;8.716;2023-11-18T08:03:33;9.17;;;3.90;;
11228;SDS011;5671;47.936;8.716;2023-11-18T08:06:04;32.30;;;3.60;;
11228;SDS011;5671;47.936;8.716;2023-11-18T08:08:32;3.37;;;2.60;;
11228;SDS011;5671;47.936;8.716;2023-11-18T08:10:58;2.53;;;2.07;;
11228;SDS011;5671;47.936;8.716;2023-11-18T08:13:26;8.27;;;2.90;;
11228;SDS011;5671;47.936;8.716;2023-11-18T08:15:53;12.70;;;2.73;;
11228;SDS011;5671;47.936;8.716;2023-11-18T08:18:23;6.00;;;2.30;;
11228;SDS011;5671;47.936;8.716;2023-11-18T08:20:50;3.57;;;2.23;;
11228;SDS011;5671;47.936;8.716;2023-11-18T08:23:18;25.67;;;3.03;;
11228;SDS011;5671;47.936;8.716;2023-11-18T08:25:45;2.40;;;2.20;;
11228;SDS011;5671;47.936;8.716;2023-11-18T08:28:16;2.77;;;2.40;;
11228;SDS011;5671;47.936;8.716;2023-11-18T08:30:48;2.80;;;2.50;;
11228;SDS011;5671;47.936;8.716;2023-11-18T08:33:16;5.83;;;3.03;;
11228;SDS011;5671;47.936;8.716;2023-11-18T08:35:43;12.30;;;3.07;;
11228;SDS011;5671;47.936;8.716;2023-11-18T08:38:11;3.23;;;2.60;;
11228;SDS011;5671;47.936;8.716;2023-11-18T08:40:40;2.30;;;2.10;;
11228;SDS011;5671;47.936;8.716;2023-11-18T08:43:07;2.30;;;2.20;;
11228;SDS011;5671;47.936;8.716;2023-11-18T08:45:36;2.80;;;2.50;;
11228;SDS011;5671;47.936;8.716;2023-11-18T08:48:15;3.97;;;3.57;;
11228;SDS011;5671;47.936;8.716;2023-11-18T08:50:52;4.73;;;4.30;;
11228;SDS011;5671;47.936;8.716;2023-11-18T08:53:19;4.57;;;4.17;;
11228;SDS011;5671;47.936;8.716;2023-11-18T08:55:55;4.77;;;4.37;;
11228;SDS011;5671;47.936;8.716;2023-11-18T09:01:30;5.30;;;4.77;;
11228;SDS011;5671;47.936;8.716;2023-11-18T09:04:05;3.63;;;3.33;;
11228;SDS011;5671;47.936;8.716;2023-11-18T09:06:32;3.10;;;2.90;;
11228;SDS011;5671;47.936;8.716;2023-11-18T09:09:04;3.43;;;3.13;;
11228;SDS011;5671;47.936;8.716;2023-11-18T09:11:40;4.40;;;4.00;;
11228;SDS011;5671;47.936;8.716;2023-11-18T09:14:07;5.30;;;4.30;;
11228;SDS011;5671;47.936;8.716;2023-11-18T09:16:34;5.20;;;4.70;;
11228;SDS011;5671;47.936;8.716;2023-11-18T09:19:04;6.57;;;5.87;;
11228;SDS011;5671;47.936;8.716;2023-11-18T09:21:31;6.00;;;5.40;;
11228;SDS011;5671;47.936;8.716;2023-11-18T09:24:00;5.67;;;4.20;;
11228;SDS011;5671;47.936;8.716;2023-11-18T09:26:30;5.70;;;4.83;;
11228;SDS011;5671;47.936;8.716;2023-11-18T09:28:58;5.33;;;4.67;;
11228;SDS011;5671;47.936;8.716;2023-11-18T09:31:26;4.47;;;3.80;;
11228;SDS011;5671;47.936;8.716;2023-11-18T09:33:53;6.20;;;3.83;;
11228;SDS011;5671;47.936;8.716;2023-11-18T09:36:22;6.90;;;4.73;;
11228;SDS011;5671;47.936;8.716;2023-11-18T09:38:49;4.83;;;4.43;;
11228;SDS011;5671;47.936;8.716;2023-11-18T09:41:22;7.93;;;5.23;;
11228;SDS011;5671;47.936;8.716;2023-11-18T09:43:52;7.80;;;5.13;;
11228;SDS011;5671;47.936;8.716;2023-11-18T09:46:23;5.30;;;4.80;;
11228;SDS011;5671;47.936;8.716;2023-11-18T09:48:57;6.60;;;5.03;;
11228;SDS011;5671;47.936;8.716;2023-11-18T09:51:39;7.30;;;5.27;;
11228;SDS011;5671;47.936;8.716;2023-11-18T09:54:12;7.07;;;5.17;;
11228;SDS011;5671;47.936;8.716;2023-11-18T09:56:56;8.70;;;5.23;;
11228;SDS011;5671;47.936;8.716;2023-11-18T09:59:36;5.87;;;4.47;;
11228;SDS011;5671;47.936;8.716;2023-11-18T10:02:14;10.60;;;7.33;;
11228;SDS011;5671;47.936;8.716;2023-11-18T10:04:43;7.23;;;6.53;;
11228;SDS011;5671;47.936;8.716;2023-11-18T10:07:13;8.40;;;6.43;;
11228;SDS011;5671;47.936;8.716;2023-11-18T10:09:44;11.87;;;6.70;;
11228;SDS011;5671;47.936;8.716;2023-11-18T10:12:14;6.87;;;6.07;;
11228;SDS011;5671;47.936;8.716;2023-11-18T10:14:42;6.87;;;6.17;;
11228;SDS011;5671;47.936;8.716;2023-11-18T10:17:11;7.37;;;6.20;;
11228;SDS011;5671;47.936;8.716;2023-11-18T10:19:52;7.43;;;6.10;;
11228;SDS011;5671;47.936;8.716;2023-11-18T10:22:25;7.67;;;6.87;;
11228;SDS011;5671;47.936;8.716;2023-11-18T10:24:55;7.00;;;6.30;;
11228;SDS011;5671;47.936;8.716;2023-11-18T10:27:31;6.60;;;5.97;;
11228;SDS011;5671;47.936;8.716;2023-11-18T10:30:01;8.03;;;7.07;;
11228;SDS011;5671;47.936;8.716;2023-11-18T10:32:31;7.73;;;6.93;;
11228;SDS011;5671;47.936;8.716;2023-11-18T10:35:00;7.60;;;6.80;;
11228;SDS011;5671;47.936;8.716;2023-11-18T10:37:30;7.80;;;7.00;;
11228;SDS011;5671;47.936;8.716;2023-11-18T10:39:57;8.53;;;6.70;;
11228;SDS011;5671;47.936;8.716;2023-11-18T10:42:29;7.80;;;6.80;;
11228;SDS011;5671;47.936;8.716;2023-11-18T10:44:58;9.93;;;7.30;;
11228;SDS011;5671;47.936;8.716;2023-11-18T10:47:27;11.47;;;6.90;;
11228;SDS011;5671;47.936;8.716;2023-11-18T10:49:56;11.07;;;6.83;;
11228;SDS011;5671;47.936;8.716;2023-11-18T10:52:23;11.13;;;6.90;;
11228;SDS011;5671;47.936;8.716;2023-11-18T10:54:56;7.20;;;6.40;;
11228;SDS011;5671;47.936;8.716;2023-11-18T10:57:23;7.87;;;7.07;;
11228;SDS011;5671;47.936;8.716;2023-11-18T11:00:00;7.77;;;7.07;;
11228;SDS011;5671;47.936;8.716;2023-11-18T11:02:29;9.00;;;6.87;;
11228;SDS011;5671;47.936;8.716;2023-11-18T11:05:02;6.87;;;6.20;;
11228;SDS011;5671;47.936;8.716;2023-11-18T11:07:29;7.00;;;6.30;;
11228;SDS011;5671;47.936;8.716;2023-11-18T11:09:59;8.17;;;7.37;;
11228;SDS011;5671;47.936;8.716;2023-11-18T11:12:29;8.03;;;7.23;;
11228;SDS011;5671;47.936;8.716;2023-11-18T11:15:00;7.60;;;6.63;;
11228;SDS011;5671;47.936;8.716;2023-11-18T11:17:39;5.97;;;5.37;;
11228;SDS011;5671;47.936;8.716;2023-11-18T11:20:13;6.80;;;6.20;;
11228;SDS011;5671;47.936;8.716;2023-11-18T11:22:54;6.90;;;6.20;;
11228;SDS011;5671;47.936;8.716;2023-11-18T11:25:35;8.23;;;7.03;;
11228;SDS011;5671;47.936;8.716;2023-11-18T11:28:11;10.23;;;6.40;;
11228;SDS011;5671;47.936;8.716;2023-11-18T11:30:42;6.37;;;5.70;;
11228;SDS011;5671;47.936;8.716;2023-11-18T11:33:18;6.63;;;5.87;;
11228;SDS011;5671;47.936;8.716;2023-11-18T11:35:55;5.70;;;5.13;;
11228;SDS011;5671;47.936;8.716;2023-11-18T11:38:25;5.93;;;5.30;;
11228;SDS011;5671;47.936;8.716;2023-11-18T11:40:57;6.67;;;5.10;;
11228;SDS011;5671;47.936;8.716;2023-11-18T11:43:27;5.60;;;4.97;;
11228;SDS011;5671;47.936;8.716;2023-11-18T11:45:55;5.13;;;4.63;;
11228;SDS011;5671;47.936;8.716;2023-11-18T11:51:05;5.47;;;4.70;;
11228;SDS011;5671;47.936;8.716;2023-11-18T11:53:41;4.93;;;4.43;;
11228;SDS011;5671;47.936;8.716;2023-11-18T11:56:25;4.80;;;4.40;;
11228;SDS011;5671;47.936;8.716;2023-11-18T11:59:07;4.77;;;3.87;;
11228;SDS011;5671;47.936;8.716;2023-11-18T12:01:36;4.03;;;3.63;;
11228;SDS011;5671;47.936;8.716;2023-11-18T12:04:07;4.53;;;3.50;;
11228;SDS011;5671;47.936;8.716;2023-11-18T12:06:47;4.27;;;3.87;;
11228;SDS011;5671;47.936;8.716;2023-11-18T12:09:18;3.53;;;3.23;;
11228;SDS011;5671;47.936;8.716;2023-11-18T12:11:49;3.60;;;2.63;;
11228;SDS011;5671;47.936;8.716;2023-11-18T12:14:29;3.17;;;2.83;;
11228;SDS011;5671;47.936;8.716;2023-11-18T12:17:06;3.33;;;2.60;;
11228;SDS011;5671;47.936;8.716;2023-11-18T12:22:25;5.10;;;4.47;;
11228;SDS011;5671;47.936;8.716;2023-11-18T12:27:57;10.30;;;9.27;;
11228;SDS011;5671;47.936;8.716;2023-11-18T12:30:40;5.10;;;4.57;;
11228;SDS011;5671;47.936;8.716;2023-11-18T12:33:17;4.90;;;4.30;;
11228;SDS011;5671;47.936;8.716;2023-11-18T12:39:02;3.00;;;2.70;;
11228;SDS011;5671;47.936;8.716;2023-11-18T12:41:53;5.23;;;3.70;;
11228;SDS011;5671;47.936;8.716;2023-11-18T12:44:33;3.83;;;3.47;;
11228;SDS011;5671;47.936;8.716;2023-11-18T12:47:04;1.80;;;1.70;;
11228;SDS011;5671;47.936;8.716;2023-11-18T12:49:39;2.00;;;1.87;;
11228;SDS011;5671;47.936;8.716;2023-11-18T12:52:15;2.10;;;1.90;;
11228;SDS011;5671;47.936;8.716;2023-11-18T12:54:45;3.17;;;1.70;;
11228;SDS011;5671;47.936;8.716;2023-11-18T12:57:15;1.37;;;1.27;;
11228;SDS011;5671;47.936;8.716;2023-11-18T12:59:43;1.97;;;1.70;;
11228;SDS011;5671;47.936;8.716;2023-11-18T13:02:11;2.27;;;1.60;;
11228;SDS011;5671;47.936;8.716;2023-11-18T13:04:44;2.03;;;1.83;;
11228;SDS011;5671;47.936;8.716;2023-11-18T13:07:12;5.33;;;3.67;;
11228;SDS011;5671;47.936;8.716;2023-11-18T13:09:40;3.60;;;2.83;;
11228;SDS011;5671;47.936;8.716;2023-11-18T13:12:11;2.17;;;1.97;;
11228;SDS011;5671;47.936;8.716;2023-11-18T13:14:40;4.63;;;2.63;;
11228;SDS011;5671;47.936;8.716;2023-11-18T13:17:08;2.10;;;1.90;;
11228;SDS011;5671;47.936;8.716;2023-11-18T13:19:38;1.80;;;1.70;;
11228;SDS011;5671;47.936;8.716;2023-11-18T13:22:06;2.20;;;1.70;;
11228;SDS011;5671;47.936;8.716;2023-11-18T13:24:34;2.90;;;2.10;;
11228;SDS011;5671;47.936;8.716;2023-11-18T13:27:01;4.63;;;3.97;;
11228;SDS011;5671;47.936;8.716;2023-11-18T13:29:31;2.40;;;2.00;;
11228;SDS011;5671;47.936;8.716;2023-11-18T13:31:59;2.23;;;2.03;;
11228;SDS011;5671;47.936;8.716;2023-11-18T13:34:29;1.73;;;1.63;;
11228;SDS011;5671;47.936;8.716;2023-11-18T13:36:58;2.50;;;2.03;;
11228;SDS011;5671;47.936;8.716;2023-11-18T13:39:25;3.20;;;2.10;;
11228;SDS011;5671;47.936;8.716;2023-11-18T13:41:53;2.20;;;2.00;;
11228;SDS011;5671;47.936;8.716;2023-11-18T13:44:34;2.17;;;1.97;;
11228;SDS011;5671;47.936;8.716;2023-11-18T13:47:04;2.10;;;1.90;;
11228;SDS011;5671;47.936;8.716;2023-11-18T13:49:34;2.10;;;1.80;;
11228;SDS011;5671;47.936;8.716;2023-11-18T13:52:01;2.23;;;2.03;;
11228;SDS011;5671;47.936;8.716;2023-11-18T13:54:29;4.13;;;1.90;;
11228;SDS011;5671;47.936;8.716;2023-11-18T13:56:56;3.30;;;2.30;;
11228;SDS011;5671;47.936;8.716;2023-11-18T13:59:24;2.33;;;2.13;;
11228;SDS011;5671;47.936;8.716;2023-11-18T14:01:53;2.70;;;2.43;;
11228;SDS011;5671;47.936;8.716;2023-11-18T14:04:22;2.50;;;2.30;;
11228;SDS011;5671;47.936;8.716;2023-11-18T14:06:52;3.17;;;2.40;;
11228;SDS011;5671;47.936;8.716;2023-11-18T14:09:20;3.23;;;2.63;;
11228;SDS011;5671;47.936;8.716;2023-11-18T14:11:50;2.93;;;2.10;;
11228;SDS011;5671;47.936;8.716;2023-11-18T14:14:17;2.67;;;2.23;;
11228;SDS011;5671;47.936;8.716;2023-11-18T14:16:44;2.80;;;2.60;;
11228;SDS011;5671;47.936;8.716;2023-11-18T14:19:12;2.57;;;2.07;;
11228;SDS011;5671;47.936;8.716;2023-11-18T14:21:39;2.73;;;2.47;;
11228;SDS011;5671;47.936;8.716;2023-11-18T14:24:07;2.50;;;2.20;;
11228;SDS011;5671;47.936;8.716;2023-11-18T14:26:35;3.03;;;2.30;;
11228;SDS011;5671;47.936;8.716;2023-11-18T14:29:02;4.77;;;2.77;;
11228;SDS011;5671;47.936;8.716;2023-11-18T14:31:29;7.93;;;4.27;;
11228;SDS011;5671;47.936;8.716;2023-11-18T14:33:56;2.90;;;2.60;;
11228;SDS011;5671;47.936;8.716;2023-11-18T14:36:25;3.30;;;2.90;;
11228;SDS011;5671;47.936;8.716;2023-11-18T14:38:55;2.37;;;2.17;;
11228;SDS011;5671;47.936;8.716;2023-11-18T14:41:23;2.10;;;2.00;;
11228;SDS011;5671;47.936;8.716;2023-11-18T14:43:51;1.70;;;1.60;;
11228;SDS011;5671;47.936;8.716;2023-11-18T14:46:18;2.97;;;2.23;;
11228;SDS011;5671;47.936;8.716;2023-11-18T14:48:45;1.37;;;1.27;;
11228;SDS011;5671;47.936;8.716;2023-11-18T14:51:13;1.60;;;1.50;;
11228;SDS011;5671;47.936;8.716;2023-11-18T14:53:52;1.03;;;1.03;;
11228;SDS011;5671;47.936;8.716;2023-11-18T14:56:19;1.37;;;1.27;;
11228;SDS011;5671;47.936;8.716;2023-11-18T14:58:51;1.10;;;0.90;;
11228;SDS011;5671;47.936;8.716;2023-11-18T15:01:20;1.57;;;1.30;;
11228;SDS011;5671;47.936;8.716;2023-11-18T15:03:47;4.07;;;1.43;;
11228;SDS011;5671;47.936;8.716;2023-11-18T15:06:15;1.93;;;1.80;;
11228;SDS011;5671;47.936;8.716;2023-11-18T15:08:52;1.83;;;1.40;;
11228;SDS011;5671;47.936;8.716;2023-11-18T15:11:21;2.43;;;1.30;;
11228;SDS011;5671;47.936;8.716;2023-11-18T15:13:49;1.20;;;1.10;;
11228;SDS011;5671;47.936;8.716;2023-11-18T15:16:17;1.83;;;1.30;;
11228;SDS011;5671;47.936;8.716;2023-11-18T15:18:44;2.37;;;1.87;;
11228;SDS011;5671;47.936;8.716;2023-11-18T15:21:12;1.63;;;1.53;;
11228;SDS011;5671;47.936;8.716;2023-11-18T15:23:40;4.17;;;2.07;;